createdAt,value
2023-01-08T00:00:06.693Z,8.30
2023-01-08T00:02:40.056Z,8.30
2023-01-08T00:05:08.044Z,8.30
2023-01-08T00:07:35.663Z,8.20
2023-01-08T00:10:03.462Z,8.20
2023-01-08T00:12:31.056Z,8.20
2023-01-08T00:14:58.722Z,8.30
2023-01-08T00:17:26.373Z,8.30
2023-01-08T00:19:54.224Z,8.40
2023-01-08T00:22:22.077Z,8.40
2023-01-08T00:24:49.811Z,8.40
2023-01-08T00:27:18.633Z,8.50
2023-01-08T00:29:46.379Z,8.50
2023-01-08T00:32:14.037Z,8.50
2023-01-08T00:34:44.626Z,8.50
2023-01-08T00:37:12.290Z,8.50
2023-01-08T00:39:40.996Z,8.40
2023-01-08T00:42:08.581Z,8.30
2023-01-08T00:44:38.041Z,8.20
2023-01-08T00:47:06.012Z,8.20
2023-01-08T00:49:33.663Z,8.10
2023-01-08T00:52:01.551Z,8.10
2023-01-08T00:54:33.222Z,8.00
2023-01-08T00:57:19.508Z,8.00
2023-01-08T00:59:58.899Z,8.00
2023-01-08T01:02:30.497Z,8.00
2023-01-08T01:04:58.355Z,7.90
2023-01-08T01:07:25.973Z,7.90
2023-01-08T01:09:53.557Z,7.90
2023-01-08T01:12:21.449Z,7.80
2023-01-08T01:14:49.321Z,7.90
2023-01-08T01:17:17.114Z,7.90
2023-01-08T01:19:45.144Z,7.80
2023-01-08T01:22:12.865Z,7.90
2023-01-08T01:24:40.484Z,7.90
2023-01-08T01:27:08.084Z,7.90
2023-01-08T01:29:35.825Z,7.90
2023-01-08T01:32:03.531Z,7.90
2023-01-08T01:34:31.242Z,7.90
2023-01-08T01:36:59.012Z,8.00
2023-01-08T01:39:26.678Z,8.00
2023-01-08T01:41:54.435Z,8.00
2023-01-08T01:44:39.657Z,8.00
2023-01-08T01:47:13.191Z,8.10
2023-01-08T01:49:43.862Z,8.20
2023-01-08T01:52:11.788Z,8.20
2023-01-08T01:54:39.852Z,8.30
2023-01-08T01:57:08.535Z,8.30
2023-01-08T01:59:36.399Z,8.30
2023-01-08T02:02:04.448Z,8.30
2023-01-08T02:04:32.333Z,8.40
2023-01-08T02:07:30.420Z,8.40
2023-01-08T02:10:12.831Z,8.40
2023-01-08T02:13:05.602Z,8.40
2023-01-08T02:15:54.102Z,8.40
2023-01-08T02:18:40.154Z,8.40
2023-01-08T02:21:15.398Z,8.40
2023-01-08T02:23:48.658Z,8.50
2023-01-08T02:26:27.764Z,8.50
2023-01-08T02:29:05.307Z,8.50
2023-01-08T02:31:35.246Z,8.60
2023-01-08T02:34:03.208Z,8.60
2023-01-08T02:36:34.943Z,8.60
2023-01-08T02:39:29.772Z,8.50
2023-01-08T02:42:12.292Z,8.40
2023-01-08T02:44:57.079Z,8.40
2023-01-08T02:47:33.389Z,8.40
2023-01-08T02:50:03.648Z,8.30
2023-01-08T02:52:34.908Z,8.30
2023-01-08T02:55:04.414Z,8.30
2023-01-08T02:57:33.818Z,8.30
2023-01-08T03:00:01.801Z,8.20
2023-01-08T03:02:33.347Z,8.20
2023-01-08T03:05:09.515Z,8.20
2023-01-08T03:07:37.467Z,8.20
2023-01-08T03:10:06.568Z,8.20
2023-01-08T03:12:45.412Z,8.20
2023-01-08T03:15:21.367Z,8.20
2023-01-08T03:17:53.080Z,8.10
2023-01-08T03:20:23.564Z,8.10
2023-01-08T03:22:55.548Z,8.10
2023-01-08T03:25:25.625Z,8.00
2023-01-08T03:28:02.919Z,8.00
2023-01-08T03:30:32.577Z,7.90
2023-01-08T03:33:02.534Z,7.90
2023-01-08T03:35:31.505Z,7.80
2023-01-08T03:38:11.916Z,7.80
2023-01-08T03:40:51.765Z,7.80
2023-01-08T03:43:19.613Z,7.80
2023-01-08T03:45:55.458Z,7.70
2023-01-08T03:48:25.282Z,7.70
2023-01-08T03:50:53.161Z,7.70
2023-01-08T03:53:20.857Z,7.70
2023-01-08T03:55:48.649Z,7.80
2023-01-08T03:58:16.538Z,7.80
2023-01-08T04:00:44.256Z,7.80
2023-01-08T04:03:11.883Z,7.90
2023-01-08T04:05:39.429Z,7.90
2023-01-08T04:08:07.278Z,7.90
2023-01-08T04:10:35.059Z,7.80
2023-01-08T04:13:02.842Z,7.80
2023-01-08T04:15:30.633Z,7.80
2023-01-08T04:17:58.239Z,7.80
2023-01-08T04:20:25.858Z,7.70
2023-01-08T04:22:53.532Z,7.70
2023-01-08T04:25:21.363Z,7.60
2023-01-08T04:27:49.602Z,7.60
2023-01-08T04:30:17.324Z,7.50
2023-01-08T04:32:44.984Z,7.50
2023-01-08T04:35:12.668Z,7.50
2023-01-08T04:37:40.328Z,7.50
2023-01-08T04:40:08.521Z,7.50
2023-01-08T04:42:36.151Z,7.50
2023-01-08T04:45:04.091Z,7.60
2023-01-08T04:47:31.749Z,7.60
2023-01-08T04:49:59.449Z,7.60
2023-01-08T04:52:29.295Z,7.60
2023-01-08T04:55:28.274Z,7.50
2023-01-08T04:57:55.980Z,7.40
2023-01-08T05:00:23.617Z,7.30
2023-01-08T05:02:51.405Z,7.20
2023-01-08T05:05:19.163Z,7.10
2023-01-08T05:07:46.769Z,7.00
2023-01-08T05:10:14.387Z,6.90
2023-01-08T05:12:41.997Z,6.90
2023-01-08T05:15:10.062Z,6.80
2023-01-08T05:17:37.714Z,6.80
2023-01-08T05:20:05.743Z,6.80
2023-01-08T05:22:33.442Z,6.80
2023-01-08T05:25:01.205Z,6.70
2023-01-08T05:27:29.344Z,6.80
2023-01-08T05:29:56.975Z,6.80
2023-01-08T05:32:24.564Z,6.80
2023-01-08T05:34:52.205Z,6.90
2023-01-08T05:37:19.867Z,6.90
2023-01-08T05:39:47.582Z,6.90
2023-01-08T05:42:15.299Z,6.90
2023-01-08T05:44:43.143Z,7.00
2023-01-08T05:47:10.832Z,6.90
2023-01-08T05:49:38.488Z,6.90
2023-01-08T05:52:06.167Z,7.00
2023-01-08T05:54:33.801Z,7.00
2023-01-08T05:57:01.537Z,6.90
2023-01-08T05:59:29.154Z,7.00
2023-01-08T06:01:56.800Z,7.00
2023-01-08T06:04:24.699Z,7.00
2023-01-08T06:06:52.309Z,6.90
2023-01-08T06:09:20.037Z,7.00
2023-01-08T06:11:47.778Z,6.90
2023-01-08T06:14:16.520Z,7.00
2023-01-08T06:16:44.137Z,7.00
2023-01-08T06:19:12.370Z,7.00
2023-01-08T06:21:40.073Z,7.00
2023-01-08T06:24:07.938Z,7.00
2023-01-08T06:26:35.565Z,6.90
2023-01-08T06:29:03.187Z,6.90
2023-01-08T06:31:30.975Z,6.90
2023-01-08T06:33:58.786Z,6.90
2023-01-08T06:36:26.421Z,6.90
2023-01-08T06:38:55.858Z,6.90
2023-01-08T06:41:23.645Z,6.90
2023-01-08T06:43:51.391Z,6.90
2023-01-08T06:46:19.137Z,6.90
2023-01-08T06:48:46.871Z,6.80
2023-01-08T06:51:14.686Z,6.90
2023-01-08T06:53:42.340Z,6.90
2023-01-08T06:56:11.104Z,6.90
2023-01-08T06:58:39.512Z,6.90
2023-01-08T07:01:07.270Z,6.90
2023-01-08T07:03:35.045Z,6.90
2023-01-08T07:06:03.341Z,7.00
2023-01-08T07:08:30.997Z,7.00
2023-01-08T07:11:03.728Z,7.00
2023-01-08T07:13:31.366Z,7.00
2023-01-08T07:15:59.055Z,7.10
2023-01-08T07:18:26.697Z,7.10
2023-01-08T07:20:54.517Z,7.10
2023-01-08T07:23:22.187Z,7.10
2023-01-08T07:25:49.959Z,7.10
2023-01-08T07:28:17.679Z,7.20
2023-01-08T07:30:45.315Z,7.20
2023-01-08T07:33:12.988Z,7.20
2023-01-08T07:35:40.685Z,7.20
2023-01-08T07:38:08.318Z,7.20
2023-01-08T07:40:37.890Z,7.20
2023-01-08T07:43:06.786Z,7.20
2023-01-08T07:45:34.473Z,7.20
2023-01-08T07:48:02.195Z,7.20
2023-01-08T07:50:29.907Z,7.20
2023-01-08T07:53:01.743Z,7.10
2023-01-08T07:55:31.023Z,7.10
2023-01-08T07:57:59.195Z,7.00
2023-01-08T08:00:27.221Z,7.00
2023-01-08T08:02:55.174Z,6.90
2023-01-08T08:05:22.836Z,6.80
2023-01-08T08:07:50.443Z,6.80
2023-01-08T08:10:18.144Z,6.80
2023-01-08T08:12:46.046Z,6.80
2023-01-08T08:15:13.784Z,6.80
2023-01-08T08:17:45.653Z,6.80
2023-01-08T08:20:13.724Z,6.80
2023-01-08T08:22:44.469Z,6.80
2023-01-08T08:25:15.269Z,6.80
2023-01-08T08:27:45.297Z,6.90
2023-01-08T08:30:14.413Z,6.90
2023-01-08T08:32:42.188Z,6.90
2023-01-08T08:35:10.127Z,7.00
2023-01-08T08:37:37.875Z,7.00
2023-01-08T08:40:06.343Z,7.00
2023-01-08T08:42:36.865Z,7.00
2023-01-08T08:45:05.588Z,7.00
2023-01-08T08:47:33.608Z,7.00
2023-01-08T08:50:02.284Z,7.00
2023-01-08T08:52:31.374Z,7.00
2023-01-08T08:55:06.992Z,7.00
2023-01-08T08:57:37.874Z,7.10
2023-01-08T09:00:05.894Z,7.10
2023-01-08T09:02:33.799Z,7.10
2023-01-08T09:05:01.665Z,7.10
2023-01-08T09:07:29.467Z,7.20
2023-01-08T09:09:57.136Z,7.20
2023-01-08T09:12:25.025Z,7.30
2023-01-08T09:14:58.040Z,7.30
2023-01-08T09:17:26.472Z,7.30
2023-01-08T09:19:57.462Z,7.40
2023-01-08T09:22:28.341Z,7.40
2023-01-08T09:24:56.191Z,7.40
2023-01-08T09:27:26.990Z,7.40
2023-01-08T09:29:57.224Z,7.40
2023-01-08T09:32:24.984Z,7.50
2023-01-08T09:34:53.071Z,7.40
2023-01-08T09:37:23.495Z,7.40
2023-01-08T09:40:01.767Z,7.50
2023-01-08T09:42:31.533Z,7.50
2023-01-08T09:45:01.072Z,7.60
2023-01-08T09:47:39.741Z,7.70
2023-01-08T09:50:16.292Z,7.90
2023-01-08T09:52:44.780Z,8.10
2023-01-08T09:55:24.639Z,8.20
2023-01-08T09:57:53.743Z,8.40
2023-01-08T10:00:34.638Z,8.70
2023-01-08T10:03:02.690Z,9.00
2023-01-08T10:05:30.767Z,9.10
2023-01-08T10:07:58.702Z,9.20
2023-01-08T10:10:34.118Z,9.20
2023-01-08T10:13:01.935Z,9.20
2023-01-08T10:15:29.730Z,9.20
2023-01-08T10:18:13.156Z,9.20
2023-01-08T10:20:41.025Z,9.10
2023-01-08T10:23:15.022Z,9.20
2023-01-08T10:25:58.406Z,9.30
2023-01-08T10:28:35.750Z,9.40
2023-01-08T10:31:11.158Z,9.50
2023-01-08T10:33:49.523Z,9.50
2023-01-08T10:36:24.662Z,9.60
2023-01-08T10:39:01.092Z,9.70
2023-01-08T10:41:29.649Z,9.70
2023-01-08T10:45:02.159Z,9.70
2023-01-08T10:47:33.950Z,9.70
2023-01-08T10:50:04.763Z,9.80
2023-01-08T10:52:36.421Z,9.80
2023-01-08T10:55:23.211Z,9.90
2023-01-08T10:57:59.381Z,9.90
2023-01-08T11:00:36.177Z,9.90
2023-01-08T11:03:42.561Z,10.00
2023-01-08T11:06:18.021Z,10.30
2023-01-08T11:08:54.985Z,10.60
2023-01-08T11:11:23.809Z,10.90
2023-01-08T11:13:59.432Z,10.90
2023-01-08T11:16:37.293Z,10.80
2023-01-08T11:19:15.228Z,10.80
2023-01-08T11:21:54.074Z,10.70
2023-01-08T11:24:27.154Z,10.60
2023-01-08T11:27:15.017Z,10.50
2023-01-08T11:30:14.472Z,10.50
2023-01-08T11:33:06.731Z,10.40
2023-01-08T11:35:48.976Z,10.30
2023-01-08T11:38:17.300Z,10.10
2023-01-08T11:40:58.433Z,10.10
2023-01-08T11:43:35.627Z,10.10
2023-01-08T11:46:42.210Z,10.10
2023-01-08T11:49:26.028Z,10.10
2023-01-08T11:52:29.707Z,10.10
2023-01-08T11:55:20.747Z,10.00
2023-01-08T11:58:13.666Z,10.10
2023-01-08T12:00:45.532Z,10.20
2023-01-08T12:03:17.972Z,10.40
2023-01-08T12:06:01.401Z,10.40
2023-01-08T12:08:29.245Z,10.40
2023-01-08T12:11:15.664Z,10.40
2023-01-08T12:14:13.203Z,10.40
2023-01-08T12:16:44.190Z,10.90
2023-01-08T12:19:45.017Z,11.20
2023-01-08T12:26:41.512Z,11.30
2023-01-08T12:29:40.049Z,11.40
2023-01-08T12:32:53.811Z,11.80
2023-01-08T12:36:29.115Z,11.90
2023-01-08T12:39:28.436Z,11.60
2023-01-08T12:42:47.270Z,11.60
2023-01-08T12:45:28.842Z,11.60
2023-01-08T12:48:07.808Z,11.30
2023-01-08T12:51:04.613Z,11.40
2023-01-08T12:53:35.227Z,11.50
2023-01-08T12:56:09.985Z,11.40
2023-01-08T12:58:48.643Z,11.30
2023-01-08T13:01:22.455Z,11.00
2023-01-08T13:03:50.889Z,10.90
2023-01-08T13:06:20.088Z,10.80
2023-01-08T13:08:53.962Z,10.70
2023-01-08T13:11:33.633Z,10.60
2023-01-08T13:14:08.508Z,10.40
2023-01-08T13:16:39.842Z,10.20
2023-01-08T13:19:23.792Z,10.00
2023-01-08T13:21:54.562Z,9.90
2023-01-08T13:24:29.798Z,9.70
2023-01-08T13:27:09.522Z,9.70
2023-01-08T13:32:51.477Z,9.50
2023-01-08T13:35:32.571Z,9.40
2023-01-08T13:38:16.181Z,9.30
2023-01-08T13:40:43.770Z,9.20
2023-01-08T13:43:44.932Z,9.00
2023-01-08T13:46:18.377Z,8.90
2023-01-08T13:49:03.211Z,8.80
2023-01-08T13:51:38.310Z,8.80
2023-01-08T13:54:12.029Z,8.70
2023-01-08T13:56:44.582Z,8.70
2023-01-08T13:59:28.937Z,8.60
2023-01-08T14:01:57.553Z,8.60
2023-01-08T14:04:25.489Z,8.60
2023-01-08T14:06:53.386Z,8.60
2023-01-08T14:09:23.800Z,8.60
2023-01-08T14:11:58.333Z,8.60
2023-01-08T14:14:26.012Z,8.50
2023-01-08T14:16:54.287Z,8.50
2023-01-08T14:19:25.795Z,8.40
2023-01-08T14:22:01.629Z,8.40
2023-01-08T14:24:30.141Z,8.30
2023-01-08T14:26:59.744Z,8.20
2023-01-08T14:29:30.101Z,8.20
2023-01-08T14:32:00.422Z,8.20
2023-01-08T14:34:31.318Z,8.10
2023-01-08T14:36:59.075Z,8.10
2023-01-08T14:39:34.957Z,8.00
2023-01-08T14:42:28.800Z,7.90
2023-01-08T14:45:05.781Z,7.90
2023-01-08T14:47:51.514Z,7.70
2023-01-08T14:50:36.114Z,7.60
2023-01-08T14:53:26.709Z,7.60
2023-01-08T14:55:56.838Z,7.50
2023-01-08T14:58:28.221Z,7.40
2023-01-08T15:01:02.351Z,7.40
2023-01-08T15:03:34.878Z,7.30
2023-01-08T15:06:03.299Z,7.30
2023-01-08T15:08:42.195Z,7.30
2023-01-08T15:11:18.956Z,7.20
2023-01-08T15:14:01.720Z,7.20
2023-01-08T15:16:39.848Z,7.20
2023-01-08T15:19:17.963Z,7.10
2023-01-08T15:21:50.265Z,7.10
2023-01-08T15:24:36.445Z,7.10
2023-01-08T15:27:10.273Z,7.00
2023-01-08T15:29:49.627Z,7.00
2023-01-08T15:32:17.419Z,7.00
2023-01-08T15:34:46.467Z,6.90
2023-01-08T15:37:15.663Z,6.90
2023-01-08T15:39:45.725Z,6.90
2023-01-08T15:42:48.975Z,6.80
2023-01-08T15:45:22.375Z,6.80
2023-01-08T15:47:49.937Z,6.70
2023-01-08T15:50:17.687Z,6.70
2023-01-08T15:52:45.361Z,6.70
2023-01-08T15:55:24.534Z,6.70
2023-01-08T15:57:52.340Z,6.60
2023-01-08T16:00:22.633Z,6.60
2023-01-08T16:02:52.854Z,6.50
2023-01-08T16:05:22.348Z,6.50
2023-01-08T16:07:50.054Z,6.50
2023-01-08T16:10:22.016Z,6.40
2023-01-08T16:12:49.700Z,6.40
2023-01-08T16:15:17.481Z,6.40
2023-01-08T16:17:45.596Z,6.40
2023-01-08T16:20:14.916Z,6.40
2023-01-08T16:22:42.563Z,6.40
2023-01-08T16:25:11.093Z,6.40
2023-01-08T16:27:41.145Z,6.40
2023-01-08T16:30:14.906Z,6.40
2023-01-08T16:32:46.864Z,6.50
2023-01-08T16:35:17.406Z,6.50
2023-01-08T16:37:45.233Z,6.50
2023-01-08T16:40:15.309Z,6.50
2023-01-08T16:42:42.999Z,6.60
2023-01-08T16:45:16.139Z,6.60
2023-01-08T16:47:43.784Z,6.60
2023-01-08T16:50:12.327Z,6.60
2023-01-08T16:52:40.737Z,6.60
2023-01-08T16:55:11.601Z,6.60
2023-01-08T16:57:41.637Z,6.70
2023-01-08T17:00:10.065Z,6.70
2023-01-08T17:02:38.106Z,6.80
2023-01-08T17:05:06.459Z,6.80
2023-01-08T17:07:35.250Z,6.90
2023-01-08T17:10:03.058Z,6.80
2023-01-08T17:12:32.171Z,6.90
2023-01-08T17:15:00.015Z,6.90
2023-01-08T17:17:27.719Z,6.90
2023-01-08T17:19:55.628Z,7.00
2023-01-08T17:22:23.506Z,7.00
2023-01-08T17:24:52.288Z,7.00
2023-01-08T17:27:20.397Z,7.10
2023-01-08T17:29:48.201Z,7.10
2023-01-08T17:32:15.862Z,7.10
2023-01-08T17:34:43.530Z,7.10
2023-01-08T17:37:11.646Z,7.10
2023-01-08T17:39:39.476Z,7.10
2023-01-08T17:42:24.823Z,7.00
2023-01-08T17:44:52.802Z,7.00
2023-01-08T17:47:20.509Z,6.90
2023-01-08T17:49:52.646Z,6.90
2023-01-08T17:52:23.170Z,6.80
2023-01-08T17:54:52.328Z,6.70
2023-01-08T17:57:23.958Z,6.60
2023-01-08T17:59:51.772Z,6.60
2023-01-08T18:02:19.785Z,6.50
2023-01-08T18:04:48.405Z,6.50
2023-01-08T18:07:16.408Z,6.50
2023-01-08T18:09:45.071Z,6.40
2023-01-08T18:12:12.816Z,6.40
2023-01-08T18:14:46.375Z,6.40
2023-01-08T18:17:13.962Z,6.30
2023-01-08T18:19:41.768Z,6.30
2023-01-08T18:22:10.147Z,6.30
2023-01-08T18:24:39.890Z,6.20
2023-01-08T18:27:07.691Z,6.20
2023-01-08T18:29:41.885Z,6.10
2023-01-08T18:32:12.132Z,6.00
2023-01-08T18:34:40.586Z,6.00
2023-01-08T18:37:14.316Z,6.00
2023-01-08T18:39:43.394Z,5.90
2023-01-08T18:42:28.848Z,5.90
2023-01-08T18:44:57.691Z,5.90
2023-01-08T18:47:28.864Z,5.80
2023-01-08T18:49:59.185Z,5.80
2023-01-08T18:52:26.868Z,5.80
2023-01-08T18:54:55.756Z,5.80
2023-01-08T18:57:23.453Z,5.80
2023-01-08T18:59:51.164Z,5.80
2023-01-08T19:02:27.037Z,5.70
2023-01-08T19:04:55.039Z,5.70
2023-01-08T19:07:22.752Z,5.80
2023-01-08T19:09:50.458Z,5.90
2023-01-08T19:12:18.363Z,6.00
2023-01-08T19:14:47.172Z,6.10
2023-01-08T19:17:15.507Z,6.10
2023-01-08T19:19:43.184Z,6.00
2023-01-08T19:22:11.057Z,6.00
2023-01-08T19:24:38.706Z,5.90
2023-01-08T19:27:06.333Z,5.90
2023-01-08T19:29:34.354Z,5.80
2023-01-08T19:32:02.277Z,5.80
2023-01-08T19:34:31.586Z,5.70
2023-01-08T19:37:01.600Z,5.70
2023-01-08T19:39:30.173Z,5.70
2023-01-08T19:42:17.005Z,5.60
2023-01-08T19:44:45.003Z,5.60
2023-01-08T19:47:28.123Z,5.60
2023-01-08T19:50:17.273Z,5.50
2023-01-08T19:52:49.013Z,5.50
2023-01-08T19:55:24.916Z,5.50
2023-01-08T19:57:54.717Z,5.50
2023-01-08T20:00:25.110Z,5.50
2023-01-08T20:02:53.532Z,5.50
2023-01-08T20:05:21.251Z,5.50
2023-01-08T20:07:53.069Z,5.50
2023-01-08T20:10:38.851Z,5.50
2023-01-08T20:13:18.447Z,5.40
2023-01-08T20:15:57.220Z,5.50
2023-01-08T20:18:25.158Z,5.50
2023-01-08T20:21:02.350Z,5.50
2023-01-08T20:23:30.519Z,5.50
2023-01-08T20:26:02.961Z,5.40
2023-01-08T20:28:30.746Z,5.40
2023-01-08T20:31:05.301Z,5.40
2023-01-08T20:33:33.120Z,5.40
2023-01-08T20:36:00.916Z,5.40
2023-01-08T20:38:28.785Z,5.40
2023-01-08T20:40:56.544Z,5.40
2023-01-08T20:43:24.521Z,5.40
2023-01-08T20:45:52.361Z,5.40
2023-01-08T20:48:20.144Z,5.50
2023-01-08T20:50:57.771Z,5.50
2023-01-08T20:53:26.572Z,5.50
2023-01-08T20:55:54.439Z,5.50
2023-01-08T20:58:22.149Z,5.50
2023-01-08T21:00:49.840Z,5.50
2023-01-08T21:03:17.646Z,5.60
2023-01-08T21:05:46.247Z,5.60
2023-01-08T21:08:13.965Z,5.60
2023-01-08T21:10:41.670Z,5.70
2023-01-08T21:13:09.831Z,5.70
2023-01-08T21:15:37.743Z,5.70
2023-01-08T21:18:05.480Z,5.70
2023-01-08T21:20:33.140Z,5.70
2023-01-08T21:23:01.730Z,5.70
2023-01-08T21:25:32.261Z,5.80
2023-01-08T21:28:01.110Z,5.80
2023-01-08T21:30:31.883Z,5.90
2023-01-08T21:33:02.512Z,5.90
2023-01-08T21:35:30.229Z,6.00
2023-01-08T21:37:57.853Z,6.00
2023-01-08T21:40:34.921Z,6.00
2023-01-08T21:43:22.792Z,5.90
2023-01-08T21:45:55.929Z,6.00
2023-01-08T21:48:26.616Z,6.00
2023-01-08T21:50:54.509Z,6.00
2023-01-08T21:53:36.293Z,6.10
2023-01-08T21:56:05.366Z,6.10
2023-01-08T21:58:35.662Z,6.00
2023-01-08T22:01:13.483Z,6.10
2023-01-08T22:03:41.600Z,6.00
2023-01-08T22:06:15.175Z,6.00
2023-01-08T22:08:55.100Z,6.00
2023-01-08T22:11:31.919Z,5.90
2023-01-08T22:14:00.203Z,5.90
2023-01-08T22:16:29.926Z,5.90
2023-01-08T22:19:00.904Z,5.90
2023-01-08T22:21:28.867Z,5.90
2023-01-08T22:23:57.451Z,5.80
2023-01-08T22:26:25.307Z,5.80
2023-01-08T22:28:53.737Z,5.70
2023-01-08T22:31:22.084Z,5.70
2023-01-08T22:33:56.768Z,5.70
2023-01-08T22:36:25.689Z,5.70
2023-01-08T22:38:55.537Z,5.70
2023-01-08T22:41:24.618Z,5.70
2023-01-08T22:43:56.845Z,5.70
2023-01-08T22:46:25.667Z,5.80
2023-01-08T22:48:58.935Z,5.90
2023-01-08T22:51:27.578Z,5.90
2023-01-08T22:53:59.900Z,6.00
2023-01-08T22:56:29.573Z,6.00
2023-01-08T22:59:02.959Z,6.10
2023-01-08T23:01:31.011Z,6.20
2023-01-08T23:04:00.861Z,6.30
2023-01-08T23:06:31.567Z,6.30
2023-01-08T23:09:08.985Z,6.30
2023-01-08T23:11:36.846Z,6.30
2023-01-08T23:14:05.326Z,6.40
2023-01-08T23:16:35.691Z,6.40
2023-01-08T23:19:03.501Z,6.40
2023-01-08T23:21:31.329Z,6.40
2023-01-08T23:23:59.216Z,6.40
2023-01-08T23:26:32.521Z,6.40
2023-01-08T23:29:00.787Z,6.50
2023-01-08T23:31:31.463Z,6.50
2023-01-08T23:34:02.398Z,6.50
2023-01-08T23:36:30.240Z,6.50
2023-01-08T23:39:02.571Z,6.50
2023-01-08T23:41:35.078Z,6.50
2023-01-08T23:44:09.101Z,6.50
2023-01-08T23:46:40.435Z,6.60
2023-01-08T23:49:10.282Z,6.60
2023-01-08T23:51:44.438Z,6.60
2023-01-08T23:54:18.472Z,6.60
2023-01-08T23:56:46.737Z,6.60
2023-01-08T23:59:14.895Z,6.60
